Time;durP1;ratioP1;P1;durP2;ratioP2;P2;SDS_P1;SDS_P2;PMS_P1;PMS_P2;Temp;Humidity;BMP_temperature;BMP_pressure;BME280_temperature;BME280_humidity;BME280_pressure;Samples;Min_cycle;Max_cycle;Signal;HPM_P1;HPM_P2
2021/09/26 00:00:39;;;;;;;9.43;6.25;;;;;;;;;;4992176;28;20377;-64
2021/09/26 00:03:05;;;;;;;8.05;5.85;;;;;;;;;;4990712;28;20030;-64
2021/09/26 00:05:30;;;;;;;9.30;6.20;;;;;;;;;;4991639;28;20073;-63
2021/09/26 00:07:56;;;;;;;8.82;6.28;;;;;;;;;;4991371;28;20133;-63
2021/09/26 00:10:21;;;;;;;6.90;6.20;;;;;;;;;;4992485;28;20117;-63
2021/09/26 00:12:47;;;;;;;9.73;6.32;;;;;;;;;;4990779;28;20038;-62
2021/09/26 00:15:16;;;;;;;10.85;6.47;;;;;;;;;;4972517;28;20045;-63
2021/09/26 00:17:42;;;;;;;8.23;5.95;;;;;;;;;;4985097;28;20065;-64
2021/09/26 00:20:09;;;;;;;7.07;5.80;;;;;;;;;;4991417;28;20030;-64
2021/09/26 00:22:34;;;;;;;7.32;6.03;;;;;;;;;;4990569;28;20038;-64
2021/09/26 00:25:00;;;;;;;6.97;5.90;;;;;;;;;;4991962;28;20397;-64
2021/09/26 00:27:25;;;;;;;7.28;5.68;;;;;;;;;;4990167;28;20049;-63
2021/09/26 00:29:51;;;;;;;8.88;6.20;;;;;;;;;;4990541;28;20029;-63
2021/09/26 00:32:16;;;;;;;9.57;6.05;;;;;;;;;;4991783;28;20072;-64
2021/09/26 00:34:42;;;;;;;8.20;5.75;;;;;;;;;;4990679;28;20038;-63
2021/09/26 00:37:07;;;;;;;9.50;6.43;;;;;;;;;;4990503;28;20030;-64
2021/09/26 00:39:33;;;;;;;7.05;6.15;;;;;;;;;;4991476;28;20427;-64
2021/09/26 00:41:59;;;;;;;7.65;6.35;;;;;;;;;;4987972;28;20033;-64
2021/09/26 00:44:24;;;;;;;9.35;6.50;;;;;;;;;;4992140;28;20034;-63
2021/09/26 00:46:51;;;;;;;9.10;6.40;;;;;;;;;;4988712;28;20039;-64
2021/09/26 00:49:17;;;;;;;;;;;;;;;;;;4983726;28;20042;-63
2021/09/26 00:51:46;;;;;;;8.53;6.47;;;;;;;;;;4973215;28;19972;-64
2021/09/26 00:54:12;;;;;;;12.07;6.60;;;;;;;;;;4989519;28;20026;-63
2021/09/26 00:56:38;;;;;;;9.27;6.40;;;;;;;;;;4991066;28;20026;-62
2021/09/26 00:59:03;;;;;;;9.02;6.28;;;;;;;;;;4990673;28;20105;-64
2021/09/26 01:01:29;;;;;;;7.55;6.32;;;;;;;;;;4990027;28;20057;-64
2021/09/26 01:03:55;;;;;;;7.20;6.40;;;;;;;;;;4990065;28;20417;-65
2021/09/26 01:06:35;;;;;;;9.73;6.90;;;;;;;;;;4990272;28;20038;-64
2021/09/26 01:09:13;;;;;;;9.70;6.80;;;;;;;;;;4989257;28;20033;-64
2021/09/26 01:11:46;;;;;;;9.80;6.45;;;;;;;;;;4988997;28;20040;-64
2021/09/26 01:14:11;;;;;;;7.75;6.20;;;;;;;;;;4991420;28;20365;-65
2021/09/26 01:17:04;;;;;;;8.73;6.32;;;;;;;;;;4989651;28;20081;-63
2021/09/26 01:19:55;;;;;;;8.60;6.45;;;;;;;;;;4988957;28;20034;-64
2021/09/26 01:22:50;;;;;;;10.00;6.90;;;;;;;;;;4985828;28;20117;-65
2021/09/26 01:25:43;;;;;;;8.23;6.15;;;;;;;;;;4973117;28;21535;-64
2021/09/26 01:28:15;;;;;;;8.50;6.60;;;;;;;;;;4990171;28;20026;-64
2021/09/26 01:31:01;;;;;;;8.23;6.85;;;;;;;;;;4988036;28;20102;-65
2021/09/26 01:33:33;;;;;;;10.05;6.60;;;;;;;;;;4973254;28;20145;-62
2021/09/26 01:36:14;;;;;;;9.15;6.47;;;;;;;;;;4986265;28;20391;-63
2021/09/26 01:38:50;;;;;;;7.45;6.25;;;;;;;;;;4985943;28;20096;-64
2021/09/26 01:41:28;;;;;;;7.82;6.70;;;;;;;;;;4989113;28;20038;-64
2021/09/26 01:43:55;;;;;;;8.20;6.70;;;;;;;;;;4988340;28;20723;-63
2021/09/26 01:46:29;;;;;;;10.35;6.75;;;;;;;;;;4990357;28;20035;-63
2021/09/26 01:49:12;;;;;;;9.18;6.53;;;;;;;;;;4989502;28;20050;-68
2021/09/26 01:51:41;;;;;;;8.63;6.78;;;;;;;;;;4986878;28;20026;-67
2021/09/26 01:54:13;;;;;;;8.20;6.68;;;;;;;;;;4983219;28;20049;-65
2021/09/26 01:56:42;;;;;;;8.35;6.65;;;;;;;;;;4988827;28;20027;-64
2021/09/26 01:59:09;;;;;;;9.30;6.75;;;;;;;;;;4989958;28;20045;-65
2021/09/26 02:01:36;;;;;;;9.25;6.60;;;;;;;;;;4990014;28;20026;-65
2021/09/26 02:04:02;;;;;;;9.27;6.28;;;;;;;;;;4989961;28;20037;-63
2021/09/26 02:06:28;;;;;;;7.25;6.50;;;;;;;;;;4988289;28;20109;-64
2021/09/26 02:08:54;;;;;;;6.78;6.07;;;;;;;;;;4987804;28;20152;-64
2021/09/26 02:11:20;;;;;;;8.05;6.47;;;;;;;;;;4988479;28;20034;-64
2021/09/26 02:13:47;;;;;;;6.25;5.65;;;;;;;;;;4989336;28;20510;-63
2021/09/26 02:16:14;;;;;;;7.75;5.88;;;;;;;;;;4988152;28;20030;-64
2021/09/26 02:18:40;;;;;;;8.10;5.50;;;;;;;;;;4989068;28;20121;-63
2021/09/26 02:21:06;;;;;;;5.93;5.32;;;;;;;;;;4987456;28;20424;-65
2021/09/26 02:23:34;;;;;;;6.20;5.35;;;;;;;;;;4988760;28;20027;-64
2021/09/26 02:26:00;;;;;;;7.03;5.93;;;;;;;;;;4983866;28;20029;-63
2021/09/26 02:28:26;;;;;;;6.53;5.53;;;;;;;;;;4987737;28;20488;-65
2021/09/26 02:30:52;;;;;;;7.80;5.63;;;;;;;;;;4988945;28;20030;-63
2021/09/26 02:33:17;;;;;;;6.57;5.55;;;;;;;;;;4989706;28;20062;-64
2021/09/26 02:35:43;;;;;;;6.72;5.75;;;;;;;;;;4989249;28;20100;-62
2021/09/26 02:38:09;;;;;;;7.80;5.80;;;;;;;;;;4990224;28;20456;-63
2021/09/26 02:40:34;;;;;;;7.93;6.05;;;;;;;;;;4988247;28;20100;-66
2021/09/26 02:43:00;;;;;;;7.43;5.88;;;;;;;;;;4987318;28;20030;-64
2021/09/26 02:45:28;;;;;;;6.28;5.50;;;;;;;;;;4988917;28;20027;-63
2021/09/26 02:47:56;;;;;;;7.07;6.15;;;;;;;;;;4988863;28;20072;-64
2021/09/26 02:50:22;;;;;;;7.10;5.75;;;;;;;;;;4989457;28;20101;-63
2021/09/26 02:52:48;;;;;;;7.07;5.50;;;;;;;;;;4987377;28;20563;-63
2021/09/26 02:55:15;;;;;;;8.95;5.72;;;;;;;;;;4987973;28;20640;-64
2021/09/26 02:57:41;;;;;;;8.43;6.20;;;;;;;;;;4986213;28;20441;-64
2021/09/26 03:00:07;;;;;;;9.07;5.65;;;;;;;;;;4982921;28;20034;-63
2021/09/26 03:02:33;;;;;;;7.37;5.83;;;;;;;;;;4989507;28;20026;-64
2021/09/26 03:04:59;;;;;;;7.18;5.95;;;;;;;;;;4988698;28;20524;-65
2021/09/26 03:07:24;;;;;;;8.50;6.25;;;;;;;;;;4987888;28;20031;-63
2021/09/26 03:09:50;;;;;;;7.20;5.72;;;;;;;;;;4969857;28;20080;-63
2021/09/26 03:12:18;;;;;;;7.43;5.50;;;;;;;;;;4986268;28;20581;-62
2021/09/26 03:14:44;;;;;;;7.13;5.78;;;;;;;;;;4988189;28;20052;-64
2021/09/26 03:17:09;;;;;;;6.20;5.60;;;;;;;;;;4988982;28;20029;-63
2021/09/26 03:19:35;;;;;;;6.72;5.72;;;;;;;;;;4988320;28;20030;-63
2021/09/26 03:22:01;;;;;;;6.53;5.78;;;;;;;;;;4989114;28;20088;-64
2021/09/26 03:24:27;;;;;;;7.70;6.00;;;;;;;;;;4986211;28;20038;-68
2021/09/26 03:26:54;;;;;;;9.25;6.03;;;;;;;;;;4986524;28;20507;-64
2021/09/26 03:29:20;;;;;;;7.07;5.65;;;;;;;;;;4987993;28;20851;-66
2021/09/26 03:31:46;;;;;;;8.50;5.97;;;;;;;;;;4982857;28;20058;-63
2021/09/26 03:34:11;;;;;;;6.90;5.78;;;;;;;;;;4983415;28;20050;-65
2021/09/26 03:36:36;;;;;;;7.18;5.80;;;;;;;;;;4986653;28;20096;-64
2021/09/26 03:39:02;;;;;;;7.50;6.32;;;;;;;;;;4973536;28;20030;-65
2021/09/26 03:41:28;;;;;;;9.68;6.15;;;;;;;;;;4990953;28;20045;-63
2021/09/26 03:43:53;;;;;;;6.32;5.72;;;;;;;;;;4986720;28;20026;-64
2021/09/26 03:46:18;;;;;;;6.88;6.15;;;;;;;;;;4992464;28;20388;-62
2021/09/26 03:48:44;;;;;;;8.02;6.15;;;;;;;;;;4990268;28;20395;-64
2021/09/26 03:51:09;;;;;;;6.50;5.80;;;;;;;;;;4992435;28;20117;-63
2021/09/26 03:53:34;;;;;;;7.45;5.85;;;;;;;;;;4982127;28;20022;-66
2021/09/26 03:56:00;;;;;;;7.05;5.97;;;;;;;;;;4990142;28;20033;-64
2021/09/26 03:58:25;;;;;;;7.32;6.50;;;;;;;;;;4992929;28;20108;-62
2021/09/26 04:00:51;;;;;;;6.20;5.60;;;;;;;;;;4989793;28;20173;-64
2021/09/26 04:03:16;;;;;;;7.07;6.15;;;;;;;;;;4986206;28;20026;-64
2021/09/26 04:05:41;;;;;;;7.90;5.90;;;;;;;;;;4991791;28;20060;-65
2021/09/26 04:08:07;;;;;;;7.78;6.57;;;;;;;;;;4991302;28;20420;-63
2021/09/26 04:10:32;;;;;;;7.93;6.00;;;;;;;;;;4992260;28;20033;-63
2021/09/26 04:12:57;;;;;;;7.47;6.15;;;;;;;;;;4990741;28;20129;-64
2021/09/26 04:15:23;;;;;;;8.95;6.00;;;;;;;;;;4990605;28;20787;-64
2021/09/26 04:17:48;;;;;;;7.35;6.18;;;;;;;;;;4991278;28;20037;-63
2021/09/26 04:20:14;;;;;;;6.70;5.68;;;;;;;;;;4988960;28;20030;-63
2021/09/26 04:22:39;;;;;;;8.02;6.13;;;;;;;;;;4975127;28;20053;-64
2021/09/26 04:25:05;;;;;;;8.02;6.35;;;;;;;;;;4989833;28;20022;-66
2021/09/26 04:27:31;;;;;;;7.28;6.00;;;;;;;;;;4992060;28;20034;-63
2021/09/26 04:29:57;;;;;;;8.10;5.93;;;;;;;;;;4989490;28;20026;-64
2021/09/26 04:32:23;;;;;;;8.10;6.15;;;;;;;;;;4991723;28;20026;-62
2021/09/26 04:34:48;;;;;;;7.68;6.35;;;;;;;;;;4971252;28;20046;-64
2021/09/26 04:37:14;;;;;;;7.60;6.40;;;;;;;;;;4970426;28;20041;-63
2021/09/26 04:39:39;;;;;;;8.10;5.82;;;;;;;;;;4991448;28;20022;-66
2021/09/26 04:42:06;;;;;;;8.45;6.07;;;;;;;;;;4990688;28;20082;-65
2021/09/26 04:44:32;;;;;;;7.57;5.75;;;;;;;;;;4990531;28;20041;-64
2021/09/26 04:46:58;;;;;;;7.90;6.22;;;;;;;;;;4990576;28;20026;-63
2021/09/26 04:49:28;;;;;;;6.53;5.90;;;;;;;;;;4989568;28;20042;-64
2021/09/26 04:51:55;;;;;;;9.73;6.13;;;;;;;;;;4990907;28;20029;-63
2021/09/26 04:54:20;;;;;;;;;;;;;;;;;;4973769;28;20137;-64
2021/09/26 04:56:46;;;;;;;8.95;6.28;;;;;;;;;;4989592;28;20044;-66
2021/09/26 04:59:11;;;;;;;7.60;6.10;;;;;;;;;;4989381;28;20077;-66
2021/09/26 05:01:37;;;;;;;7.07;5.88;;;;;;;;;;4989228;28;20139;-65
2021/09/26 05:04:02;;;;;;;7.32;6.05;;;;;;;;;;4990143;28;20038;-65
2021/09/26 05:06:28;;;;;;;7.70;6.15;;;;;;;;;;4991095;28;20053;-66
2021/09/26 05:08:53;;;;;;;7.80;5.38;;;;;;;;;;4984264;28;20026;-63
2021/09/26 05:11:18;;;;;;;7.47;5.95;;;;;;;;;;4991263;28;20456;-64
2021/09/26 05:13:44;;;;;;;9.23;6.20;;;;;;;;;;4972177;28;20361;-65
2021/09/26 05:16:09;;;;;;;6.30;5.65;;;;;;;;;;4990516;28;20384;-64
2021/09/26 05:18:35;;;;;;;9.25;6.22;;;;;;;;;;4985851;28;20046;-65
2021/09/26 05:21:00;;;;;;;7.75;6.47;;;;;;;;;;4987237;28;20026;-66
2021/09/26 05:23:25;;;;;;;7.05;5.90;;;;;;;;;;4973806;28;20048;-66
2021/09/26 05:25:51;;;;;;;8.25;5.97;;;;;;;;;;4990555;28;20490;-66
2021/09/26 05:28:16;;;;;;;6.00;5.43;;;;;;;;;;4990272;28;20082;-66
2021/09/26 05:30:43;;;;;;;6.95;6.10;;;;;;;;;;4971000;28;20030;-66
2021/09/26 05:33:08;;;;;;;7.75;6.13;;;;;;;;;;4988193;28;20070;-65
2021/09/26 05:35:35;;;;;;;8.73;6.38;;;;;;;;;;4991309;28;20058;-64
2021/09/26 05:38:00;;;;;;;7.45;6.10;;;;;;;;;;4989261;28;20117;-64
2021/09/26 05:40:25;;;;;;;7.15;6.03;;;;;;;;;;4982851;28;20188;-65
2021/09/26 05:42:52;;;;;;;7.47;6.30;;;;;;;;;;4990111;28;20035;-64
2021/09/26 05:45:17;;;;;;;8.63;6.40;;;;;;;;;;4989347;28;20424;-63
2021/09/26 05:47:43;;;;;;;9.27;6.30;;;;;;;;;;4989038;28;20041;-64
2021/09/26 05:50:09;;;;;;;11.00;6.40;;;;;;;;;;4988910;28;20048;-65
2021/09/26 05:52:34;;;;;;;7.40;6.00;;;;;;;;;;4970327;28;20048;-64
2021/09/26 05:54:59;;;;;;;7.80;5.50;;;;;;;;;;4973773;28;20022;-65
2021/09/26 05:57:25;;;;;;;11.68;6.80;;;;;;;;;;4989052;28;20045;-63
2021/09/26 05:59:50;;;;;;;7.75;6.15;;;;;;;;;;4988958;28;20037;-66
2021/09/26 06:02:26;;;;;;;6.78;6.07;;;;;;;;;;4972016;28;20038;-64
2021/09/26 06:04:52;;;;;;;7.60;6.03;;;;;;;;;;4987230;28;20019;-62
2021/09/26 06:07:18;;;;;;;6.90;5.75;;;;;;;;;;4990123;28;20717;-64
2021/09/26 06:09:44;;;;;;;7.25;5.93;;;;;;;;;;4988967;28;20034;-63
2021/09/26 06:12:12;;;;;;;6.93;5.90;;;;;;;;;;4982898;28;20034;-64
2021/09/26 06:14:39;;;;;;;7.43;5.63;;;;;;;;;;4987139;28;20064;-66
2021/09/26 06:17:05;;;;;;;6.55;5.68;;;;;;;;;;4988744;28;20096;-63
2021/09/26 06:19:30;;;;;;;7.97;6.18;;;;;;;;;;4988685;28;20045;-65
2021/09/26 06:21:56;;;;;;;7.45;5.88;;;;;;;;;;4989469;28;20759;-65
2021/09/26 06:24:21;;;;;;;8.98;5.97;;;;;;;;;;4990533;28;20029;-65
2021/09/26 06:26:47;;;;;;;8.27;5.88;;;;;;;;;;4971817;28;20038;-64
2021/09/26 06:29:12;;;;;;;9.35;6.05;;;;;;;;;;4988016;28;20030;-64
2021/09/26 06:31:39;;;;;;;6.55;5.47;;;;;;;;;;4988184;28;20093;-62
2021/09/26 06:34:04;;;;;;;7.53;5.90;;;;;;;;;;4985035;28;20129;-65
2021/09/26 06:36:30;;;;;;;6.22;5.63;;;;;;;;;;4986618;28;20102;-66
2021/09/26 06:38:57;;;;;;;6.45;5.85;;;;;;;;;;4987550;28;20129;-65
2021/09/26 06:41:22;;;;;;;8.65;5.70;;;;;;;;;;4988317;28;20460;-66
2021/09/26 06:43:48;;;;;;;7.30;5.82;;;;;;;;;;4988353;28;20042;-64
2021/09/26 06:46:14;;;;;;;7.03;5.32;;;;;;;;;;4984700;28;20451;-65
2021/09/26 06:48:39;;;;;;;8.45;6.53;;;;;;;;;;4985832;28;20030;-66
2021/09/26 06:51:05;;;;;;;8.73;5.68;;;;;;;;;;4987977;28;20026;-64
2021/09/26 06:53:30;;;;;;;8.95;5.68;;;;;;;;;;4986648;28;20069;-62
2021/09/26 06:55:56;;;;;;;6.43;5.38;;;;;;;;;;4990031;28;20193;-66
2021/09/26 06:58:21;;;;;;;6.35;5.75;;;;;;;;;;4987396;28;20121;-66
2021/09/26 07:00:47;;;;;;;7.32;5.32;;;;;;;;;;4987788;28;20035;-66
2021/09/26 07:03:16;;;;;;;5.85;4.90;;;;;;;;;;4986990;28;20026;-65
2021/09/26 07:05:41;;;;;;;11.05;5.38;;;;;;;;;;4988022;28;20045;-66
2021/09/26 07:08:07;;;;;;;6.57;5.57;;;;;;;;;;4988763;28;20034;-64
2021/09/26 07:10:33;;;;;;;8.60;5.70;;;;;;;;;;4991036;28;20030;-64
2021/09/26 07:12:59;;;;;;;7.28;5.32;;;;;;;;;;4991893;28;20034;-63
2021/09/26 07:15:24;;;;;;;7.30;5.43;;;;;;;;;;4991433;28;20092;-68
2021/09/26 07:17:50;;;;;;;6.85;6.03;;;;;;;;;;4985391;28;20042;-66
2021/09/26 07:20:15;;;;;;;6.85;5.60;;;;;;;;;;4990107;28;20081;-68
2021/09/26 07:22:40;;;;;;;6.00;5.40;;;;;;;;;;4993170;28;20504;-66
2021/09/26 07:25:09;;;;;;;8.57;5.78;;;;;;;;;;4993015;28;20027;-66
2021/09/26 07:27:34;;;;;;;7.82;5.40;;;;;;;;;;4991019;28;20062;-63
2021/09/26 07:29:59;;;;;;;7.82;5.78;;;;;;;;;;4991273;28;20552;-66
2021/09/26 07:32:25;;;;;;;8.10;5.60;;;;;;;;;;4991733;28;20073;-66
2021/09/26 07:34:51;;;;;;;6.05;5.40;;;;;;;;;;4991820;28;20053;-65
2021/09/26 07:37:17;;;;;;;7.13;5.40;;;;;;;;;;4989126;28;20046;-64
2021/09/26 07:39:43;;;;;;;7.68;5.68;;;;;;;;;;4987938;28;20109;-66
2021/09/26 07:42:08;;;;;;;5.82;5.28;;;;;;;;;;4990906;28;20445;-66
2021/09/26 07:44:34;;;;;;;5.53;4.90;;;;;;;;;;4991013;28;20026;-66
2021/09/26 07:46:59;;;;;;;6.75;5.80;;;;;;;;;;4989617;28;20038;-64
2021/09/26 07:49:25;;;;;;;7.38;5.85;;;;;;;;;;4986074;28;20137;-66
2021/09/26 07:51:50;;;;;;;6.90;5.22;;;;;;;;;;4974306;28;20033;-63
2021/09/26 07:54:16;;;;;;;7.60;5.78;;;;;;;;;;4974358;28;20739;-66
2021/09/26 07:56:43;;;;;;;6.88;6.15;;;;;;;;;;4988293;28;20061;-66
2021/09/26 07:59:08;;;;;;;9.00;6.63;;;;;;;;;;4967042;28;20034;-68
2021/09/26 08:01:34;;;;;;;8.15;6.53;;;;;;;;;;4982995;28;20046;-64
2021/09/26 08:03:59;;;;;;;7.97;6.93;;;;;;;;;;4988308;28;20519;-63
2021/09/26 08:06:25;;;;;;;9.90;7.20;;;;;;;;;;4989996;28;20500;-65
2021/09/26 08:08:51;;;;;;;112.53;12.40;;;;;;;;;;4969333;28;20076;-62
2021/09/26 08:11:16;;;;;;;10.85;7.43;;;;;;;;;;4989131;28;20088;-66
2021/09/26 08:13:42;;;;;;;9.95;7.50;;;;;;;;;;4989948;28;20062;-62
2021/09/26 08:16:07;;;;;;;10.40;7.40;;;;;;;;;;4991049;28;20112;-63
2021/09/26 08:18:32;;;;;;;10.77;7.78;;;;;;;;;;4988111;28;20030;-62
2021/09/26 08:20:58;;;;;;;10.63;7.60;;;;;;;;;;4643061;28;10001438;-65
2021/09/26 08:23:23;;;;;;;12.10;7.88;;;;;;;;;;4966527;28;20563;-66
2021/09/26 08:25:50;;;;;;;9.93;7.78;;;;;;;;;;4977426;28;20691;-65
2021/09/26 08:28:16;;;;;;;10.95;8.80;;;;;;;;;;4977313;28;20081;-64
2021/09/26 08:30:41;;;;;;;11.18;8.43;;;;;;;;;;4972378;28;20147;-65
2021/09/26 08:33:07;;;;;;;10.40;7.95;;;;;;;;;;4972824;28;20050;-63
2021/09/26 08:35:33;;;;;;;11.18;7.85;;;;;;;;;;4975834;28;20034;-66
2021/09/26 08:37:58;;;;;;;9.02;7.60;;;;;;;;;;4959626;28;20831;-65
2021/09/26 08:40:24;;;;;;;9.82;8.10;;;;;;;;;;4978287;28;20092;-63
2021/09/26 08:42:50;;;;;;;16.05;7.95;;;;;;;;;;4975291;28;20118;-67
2021/09/26 08:45:19;;;;;;;9.40;7.40;;;;;;;;;;4974585;28;20018;-65
2021/09/26 08:47:45;;;;;;;8.77;7.63;;;;;;;;;;4979704;28;20034;-63
2021/09/26 08:50:14;;;;;;;9.40;7.53;;;;;;;;;;4979604;28;20065;-66
2021/09/26 08:52:41;;;;;;;8.85;7.00;;;;;;;;;;4975608;28;20048;-65
2021/09/26 08:55:07;;;;;;;8.95;7.20;;;;;;;;;;4973111;28;20109;-64
2021/09/26 08:57:33;;;;;;;8.82;7.55;;;;;;;;;;4974005;28;20122;-65
2021/09/26 08:59:59;;;;;;;9.13;7.00;;;;;;;;;;4958535;28;20833;-63
2021/09/26 09:02:25;;;;;;;8.85;6.80;;;;;;;;;;4973496;28;20041;-64
2021/09/26 09:04:50;;;;;;;9.35;7.10;;;;;;;;;;4953027;28;20039;-65
2021/09/26 09:07:15;;;;;;;9.60;7.20;;;;;;;;;;4952853;28;20392;-68
2021/09/26 09:09:59;;;;;;;7.35;6.28;;;;;;;;;;4974263;28;20026;-65
2021/09/26 09:12:31;;;;;;;7.88;6.80;;;;;;;;;;4975895;28;20480;-67
2021/09/26 09:15:00;;;;;;;7.60;6.35;;;;;;;;;;4974565;28;20074;-65
2021/09/26 09:17:32;;;;;;;7.25;6.50;;;;;;;;;;4970707;28;20037;-66
2021/09/26 09:20:09;;;;;;;8.10;6.70;;;;;;;;;;4955618;28;20388;-65
2021/09/26 09:22:35;;;;;;;7.53;6.65;;;;;;;;;;4969429;28;20034;-66
2021/09/26 09:25:00;;;;;;;7.90;6.57;;;;;;;;;;4977994;28;20030;-63
2021/09/26 09:27:25;;;;;;;9.35;6.75;;;;;;;;;;4972078;28;20483;-68
2021/09/26 09:29:51;;;;;;;8.30;6.53;;;;;;;;;;4977463;28;20056;-66
2021/09/26 09:32:18;;;;;;;8.95;5.72;;;;;;;;;;4973484;28;20038;-66
2021/09/26 09:34:44;;;;;;;6.93;5.57;;;;;;;;;;4974608;28;20070;-63
2021/09/26 09:37:19;;;;;;;7.60;6.07;;;;;;;;;;4981936;28;20129;-66
2021/09/26 09:40:18;;;;;;;6.85;5.32;;;;;;;;;;4966927;28;20042;-64
2021/09/26 09:42:53;;;;;;;7.70;6.05;;;;;;;;;;4943166;28;20046;-65
2021/09/26 09:45:23;;;;;;;6.53;5.63;;;;;;;;;;4970154;28;20496;-67
2021/09/26 09:48:04;;;;;;;7.63;5.70;;;;;;;;;;4970532;28;20072;-67
2021/09/26 09:50:38;;;;;;;8.57;6.72;;;;;;;;;;4973688;28;20030;-64
2021/09/26 09:53:04;;;;;;;7.63;6.15;;;;;;;;;;4968883;28;20121;-66
2021/09/26 09:55:30;;;;;;;6.68;5.82;;;;;;;;;;4960591;28;20118;-68
2021/09/26 09:58:16;;;;;;;7.05;5.95;;;;;;;;;;4968717;28;20026;-66
2021/09/26 10:00:49;;;;;;;;;;;;;;;;;;4974344;28;20045;-64
2021/09/26 10:03:39;;;;;;;7.18;5.93;;;;;;;;;;4973333;28;19926;-65
2021/09/26 10:06:25;;;;;;;7.82;6.15;;;;;;;;;;4976935;28;20053;-68
2021/09/26 10:08:55;;;;;;;8.18;6.15;;;;;;;;;;4971839;28;20046;-67
2021/09/26 10:11:21;;;;;;;9.40;6.03;;;;;;;;;;4974413;28;20027;-63
2021/09/26 10:13:47;;;;;;;8.40;6.43;;;;;;;;;;4969309;28;20731;-66
2021/09/26 10:16:14;;;;;;;7.60;6.32;;;;;;;;;;4965454;28;20022;-64
2021/09/26 10:18:42;;;;;;;8.50;6.45;;;;;;;;;;4970232;28;20065;-66
2021/09/26 10:21:09;;;;;;;6.95;6.22;;;;;;;;;;4975829;28;20769;-68
2021/09/26 10:23:35;;;;;;;;;;;;;;;;;;4975605;28;20132;-64
2021/09/26 10:26:01;;;;;;;7.57;6.50;;;;;;;;;;4965879;28;19953;-65
2021/09/26 10:28:29;;;;;;;8.88;6.57;;;;;;;;;;4969290;28;20062;-66
2021/09/26 10:30:56;;;;;;;7.72;6.03;;;;;;;;;;4969713;28;20033;-66
2021/09/26 10:33:23;;;;;;;7.22;6.32;;;;;;;;;;4978116;28;20412;-65
2021/09/26 10:35:50;;;;;;;9.82;6.55;;;;;;;;;;4971952;28;20026;-64
2021/09/26 10:38:16;;;;;;;7.32;6.50;;;;;;;;;;4954506;28;20035;-65
2021/09/26 10:40:42;;;;;;;6.80;5.93;;;;;;;;;;4970166;28;20108;-67
2021/09/26 10:43:41;;;;;;;7.00;6.30;;;;;;;;;;4971074;28;20830;-63
2021/09/26 10:46:29;;;;;;;7.22;5.97;;;;;;;;;;4936030;28;20677;-62
2021/09/26 10:49:15;;;;;;;7.05;5.35;;;;;;;;;;4971700;28;20057;-66
2021/09/26 10:51:45;;;;;;;8.05;5.95;;;;;;;;;;4976046;28;20030;-64
2021/09/26 10:54:24;;;;;;;8.05;6.10;;;;;;;;;;4984543;28;20041;-62
2021/09/26 10:57:11;;;;;;;6.35;5.55;;;;;;;;;;4974755;28;20026;-62
2021/09/26 10:59:42;;;;;;;9.35;6.00;;;;;;;;;;4964036;28;20093;-62
2021/09/26 11:02:22;;;;;;;6.90;6.05;;;;;;;;;;4976323;28;20027;-60
2021/09/26 11:04:55;;;;;;;6.97;5.82;;;;;;;;;;4981531;28;20030;-64
2021/09/26 11:07:23;;;;;;;8.48;5.60;;;;;;;;;;4982305;28;20042;-63
2021/09/26 11:10:02;;;;;;;7.70;6.22;;;;;;;;;;4971210;28;20037;-62
2021/09/26 11:12:44;;;;;;;7.85;6.00;;;;;;;;;;4979779;28;20030;-62
2021/09/26 11:15:16;;;;;;;6.57;5.63;;;;;;;;;;4982120;28;20391;-63
2021/09/26 11:18:08;;;;;;;7.45;5.63;;;;;;;;;;4974510;28;20461;-62
2021/09/26 11:20:33;;;;;;;6.68;5.60;;;;;;;;;;4971359;28;20057;-66
2021/09/26 11:23:05;;;;;;;8.43;6.25;;;;;;;;;;4971179;28;20044;-65
2021/09/26 11:26:03;;;;;;;9.07;5.90;;;;;;;;;;4972325;28;20122;-62
2021/09/26 11:28:35;;;;;;;7.57;5.63;;;;;;;;;;4970457;28;20027;-62
2021/09/26 11:31:08;;;;;;;6.88;5.43;;;;;;;;;;4976380;28;20068;-63
2021/09/26 11:33:58;;;;;;;6.30;5.25;;;;;;;;;;4975257;28;20348;-63
2021/09/26 11:36:28;;;;;;;7.72;5.68;;;;;;;;;;4970873;28;20616;-67
2021/09/26 11:38:56;;;;;;;6.00;5.40;;;;;;;;;;4970552;28;20046;-63
2021/09/26 11:41:40;;;;;;;6.60;5.38;;;;;;;;;;4971961;28;20057;-65
2021/09/26 11:44:08;;;;;;;7.85;5.32;;;;;;;;;;4968416;28;20117;-65
2021/09/26 11:46:35;;;;;;;9.23;6.03;;;;;;;;;;4952034;28;20788;-69
2021/09/26 11:49:06;;;;;;;6.53;5.82;;;;;;;;;;4971776;28;20388;-61
2021/09/26 11:51:33;;;;;;;5.97;5.28;;;;;;;;;;4977215;28;20043;-62
2021/09/26 11:53:59;;;;;;;;;;;;;;;;;;4977544;28;20030;-61
2021/09/26 11:56:35;;;;;;;7.30;5.55;;;;;;;;;;4969647;28;20350;-64
2021/09/26 11:59:15;;;;;;;7.18;5.50;;;;;;;;;;4971010;28;20065;-64
2021/09/26 12:01:41;;;;;;;10.27;5.68;;;;;;;;;;4974628;28;20771;-63
2021/09/26 12:04:08;;;;;;;6.82;5.50;;;;;;;;;;4971197;28;20433;-62
2021/09/26 12:06:34;;;;;;;6.95;5.38;;;;;;;;;;4970461;28;20548;-61
2021/09/26 12:08:59;;;;;;;5.93;5.25;;;;;;;;;;4952119;28;20034;-62
2021/09/26 12:11:25;;;;;;;9.05;5.78;;;;;;;;;;4970889;28;20581;-61
2021/09/26 12:13:54;;;;;;;7.13;5.75;;;;;;;;;;4970491;28;20026;-62
2021/09/26 12:16:21;;;;;;;8.50;5.82;;;;;;;;;;4952142;28;20439;-66
2021/09/26 12:18:51;;;;;;;;;;;;;;;;;;4969969;28;20129;-63
2021/09/26 12:21:16;;;;;;;5.97;5.03;;;;;;;;;;4971051;28;19922;-69
2021/09/26 12:23:53;;;;;;;8.82;6.43;;;;;;;;;;4954062;28;20053;-63
2021/09/26 12:26:27;;;;;;;6.70;5.32;;;;;;;;;;4978417;28;20038;-65
2021/09/26 12:29:00;;;;;;;8.63;6.10;;;;;;;;;;4975399;28;20030;-62
2021/09/26 12:31:28;;;;;;;7.53;5.72;;;;;;;;;;4972653;28;20027;-63
2021/09/26 12:33:54;;;;;;;6.43;5.63;;;;;;;;;;4981636;28;20042;-63
2021/09/26 12:36:21;;;;;;;7.13;5.80;;;;;;;;;;4973687;28;20026;-62
2021/09/26 12:38:46;;;;;;;;;;;;;;;;;;4970345;28;20038;-62
2021/09/26 12:41:20;;;;;;;6.30;5.63;;;;;;;;;;4970947;28;19921;-62
2021/09/26 12:44:12;;;;;;;7.75;6.32;;;;;;;;;;4977317;28;20026;-65
2021/09/26 12:46:43;;;;;;;6.55;5.57;;;;;;;;;;4973620;28;20583;-61
2021/09/26 12:49:13;;;;;;;6.60;5.95;;;;;;;;;;4971906;28;20038;-66
2021/09/26 12:51:43;;;;;;;6.40;5.68;;;;;;;;;;4968286;28;20034;-64
2021/09/26 12:54:10;;;;;;;10.38;6.47;;;;;;;;;;4964936;28;20035;-62
2021/09/26 12:56:38;;;;;;;6.57;5.80;;;;;;;;;;4967316;28;20045;-62
2021/09/26 12:59:26;;;;;;;7.07;5.25;;;;;;;;;;4960978;28;20046;-63
2021/09/26 13:02:13;;;;;;;6.82;5.50;;;;;;;;;;4970526;28;20022;-64
2021/09/26 13:04:41;;;;;;;5.65;4.82;;;;;;;;;;4978687;28;20125;-62
2021/09/26 13:07:07;;;;;;;7.03;5.32;;;;;;;;;;4968429;28;20030;-62
2021/09/26 13:09:40;;;;;;;6.70;5.32;;;;;;;;;;4968938;28;20544;-66
2021/09/26 13:12:26;;;;;;;7.65;5.30;;;;;;;;;;4966881;28;20043;-65
2021/09/26 13:15:09;;;;;;;6.63;5.22;;;;;;;;;;4969897;28;20080;-62
2021/09/26 13:17:35;;;;;;;7.07;5.72;;;;;;;;;;4971424;28;20124;-63
2021/09/26 13:20:20;;;;;;;7.07;5.35;;;;;;;;;;4973597;28;20035;-63
2021/09/26 13:22:46;;;;;;;6.47;4.95;;;;;;;;;;4968860;28;20085;-63
2021/09/26 13:25:11;;;;;;;5.18;4.65;;;;;;;;;;4980782;28;20335;-65
2021/09/26 13:28:06;;;;;;;6.55;5.55;;;;;;;;;;4951547;28;20031;-62
2021/09/26 13:30:31;;;;;;;7.22;5.40;;;;;;;;;;4963883;28;20468;-62
2021/09/26 13:33:41;;;;;;;6.03;5.03;;;;;;;;;;4968191;28;20034;-62
2021/09/26 13:36:12;;;;;;;6.70;5.00;;;;;;;;;;4970009;28;20057;-62
2021/09/26 13:38:51;;;;;;;6.13;5.13;;;;;;;;;;4972821;28;20045;-63
2021/09/26 13:41:33;;;;;;;7.20;5.22;;;;;;;;;;4971178;28;20062;-62
2021/09/26 13:44:14;;;;;;;6.35;4.60;;;;;;;;;;4970428;28;20033;-64
2021/09/26 13:46:40;;;;;;;6.28;4.55;;;;;;;;;;4973266;28;20736;-63
2021/09/26 13:49:07;;;;;;;5.15;4.57;;;;;;;;;;4976419;28;20036;-62
2021/09/26 13:51:34;;;;;;;5.28;4.40;;;;;;;;;;4978063;28;20133;-64
2021/09/26 13:54:00;;;;;;;7.60;4.70;;;;;;;;;;4971993;28;20030;-62
2021/09/26 13:56:27;;;;;;;8.35;4.78;;;;;;;;;;4976011;28;20165;-64
2021/09/26 13:58:53;;;;;;;5.45;4.53;;;;;;;;;;4972738;28;20121;-67
2021/09/26 14:01:18;;;;;;;5.40;4.53;;;;;;;;;;4974772;28;20084;-63
2021/09/26 14:03:45;;;;;;;8.05;4.32;;;;;;;;;;4972053;28;20046;-63
2021/09/26 14:06:11;;;;;;;5.70;4.30;;;;;;;;;;4969460;28;20035;-62
2021/09/26 14:08:37;;;;;;;8.75;4.80;;;;;;;;;;4968688;28;20031;-62
2021/09/26 14:11:03;;;;;;;5.95;4.53;;;;;;;;;;4967014;28;20101;-67
2021/09/26 14:13:32;;;;;;;6.13;4.25;;;;;;;;;;4967019;28;20479;-70
2021/09/26 14:15:58;;;;;;;6.35;4.82;;;;;;;;;;4952799;28;20041;-62
2021/09/26 14:18:24;;;;;;;6.18;4.30;;;;;;;;;;4977838;28;20035;-66
2021/09/26 14:20:49;;;;;;;5.90;4.07;;;;;;;;;;4972179;28;20037;-61
2021/09/26 14:23:15;;;;;;;4.53;4.13;;;;;;;;;;4975442;28;20384;-62
2021/09/26 14:25:41;;;;;;;4.97;4.38;;;;;;;;;;4957601;28;20093;-70
2021/09/26 14:28:09;;;;;;;5.63;4.50;;;;;;;;;;4974356;28;20476;-70
2021/09/26 14:30:38;;;;;;;5.20;3.97;;;;;;;;;;4976810;28;20054;-61
2021/09/26 14:33:05;;;;;;;5.75;4.28;;;;;;;;;;4973094;28;20050;-62
2021/09/26 14:35:31;;;;;;;4.65;4.15;;;;;;;;;;4973345;28;20029;-62
2021/09/26 14:37:58;;;;;;;4.13;3.72;;;;;;;;;;4976629;28;20034;-62
2021/09/26 14:40:23;;;;;;;;;;;;;;;;;;4975352;28;20092;-76
2021/09/26 14:42:48;;;;;;;6.33;4.43;;;;;;;;;;4978580;28;19925;-62
2021/09/26 14:45:17;;;;;;;6.07;4.30;;;;;;;;;;4976105;28;20495;-61
2021/09/26 14:47:42;;;;;;;6.38;4.53;;;;;;;;;;4966216;28;20392;-63
2021/09/26 14:50:08;;;;;;;4.90;4.28;;;;;;;;;;4973257;28;20030;-62
2021/09/26 14:52:35;;;;;;;5.30;4.20;;;;;;;;;;4969260;28;20427;-67
2021/09/26 14:55:01;;;;;;;;;;;;;;;;;;4974187;28;20364;-61